Time;durP1;ratioP1;P1;durP2;ratioP2;P2;SDS_P1;SDS_P2;PMS_P1;PMS_P2;Temp;Humidity;BMP_temperature;BMP_pressure;BME280_temperature;BME280_humidity;BME280_pressure;Samples;Min_cycle;Max_cycle;Signal;HPM_P1;HPM_P2
2022/11/14 00:02:18;;;;;;;26.00;10.13;;;;;;;;;;4976929;28;20468;-62
2022/11/14 00:05:02;;;;;;;27.33;10.30;;;;;;;;;;4977696;28;20049;-63
2022/11/14 00:07:47;;;;;;;31.85;10.40;;;;;;;;;;4986549;28;20056;-62
2022/11/14 00:10:32;;;;;;;31.90;11.82;;;;;;;;;;4978793;28;20399;-62
2022/11/14 00:13:16;;;;;;;27.13;11.15;;;;;;;;;;4976061;28;20045;-62
2022/11/14 00:16:01;;;;;;;26.42;10.63;;;;;;;;;;4974321;28;20037;-62
2022/11/14 00:18:46;;;;;;;23.90;10.55;;;;;;;;;;4979693;28;20046;-62
2022/11/14 00:21:30;;;;;;;24.30;10.10;;;;;;;;;;4986239;28;20045;-62
2022/11/14 00:24:15;;;;;;;31.23;10.85;;;;;;;;;;4976190;28;20091;-62
2022/11/14 00:26:59;;;;;;;23.48;10.82;;;;;;;;;;4977690;28;20033;-62
2022/11/14 00:29:44;;;;;;;26.65;9.85;;;;;;;;;;4985937;28;20057;-62
2022/11/14 00:32:28;;;;;;;24.35;9.95;;;;;;;;;;4978224;28;20030;-62
2022/11/14 00:35:13;;;;;;;23.88;10.18;;;;;;;;;;4980411;28;20096;-62
2022/11/14 00:37:57;;;;;;;24.50;10.38;;;;;;;;;;4989840;28;20468;-63
2022/11/14 00:40:42;;;;;;;22.95;10.60;;;;;;;;;;4982897;28;20081;-62
2022/11/14 00:43:26;;;;;;;22.95;10.15;;;;;;;;;;4978358;28;20117;-62
2022/11/14 00:46:11;;;;;;;22.58;10.50;;;;;;;;;;4985147;28;20034;-62
2022/11/14 00:48:55;;;;;;;16.40;9.80;;;;;;;;;;4984238;28;20046;-62
2022/11/14 00:51:40;;;;;;;25.80;9.43;;;;;;;;;;4976718;28;20038;-62
2022/11/14 00:54:25;;;;;;;21.20;9.65;;;;;;;;;;4986340;28;20042;-63
2022/11/14 00:57:10;;;;;;;26.10;9.30;;;;;;;;;;4985818;28;20099;-62
2022/11/14 00:59:55;;;;;;;23.60;10.15;;;;;;;;;;4976111;28;20457;-62
2022/11/14 01:02:40;;;;;;;22.35;10.95;;;;;;;;;;4984597;28;20029;-62
2022/11/14 01:05:25;;;;;;;18.80;8.93;;;;;;;;;;4987818;28;20052;-62
2022/11/14 01:08:10;;;;;;;17.38;9.15;;;;;;;;;;4977183;28;20030;-63
2022/11/14 01:10:54;;;;;;;25.45;9.70;;;;;;;;;;4982793;28;20037;-62
2022/11/14 01:13:39;;;;;;;26.73;9.45;;;;;;;;;;4988702;28;20412;-62
2022/11/14 01:16:24;;;;;;;22.73;10.15;;;;;;;;;;4979223;28;20143;-62
2022/11/14 01:19:08;;;;;;;16.90;9.23;;;;;;;;;;4984241;28;20041;-62
2022/11/14 01:21:53;;;;;;;23.15;10.05;;;;;;;;;;4984598;28;20068;-62
2022/11/14 01:24:37;;;;;;;23.55;9.40;;;;;;;;;;5024353;28;20034;-62
2022/11/14 01:27:22;;;;;;;19.65;9.15;;;;;;;;;;4978942;28;20109;-62
2022/11/14 01:30:07;;;;;;;20.42;9.07;;;;;;;;;;5034765;28;20502;-62
2022/11/14 01:32:51;;;;;;;20.90;8.20;;;;;;;;;;4984642;28;20046;-62
2022/11/14 01:35:37;;;;;;;13.93;8.32;;;;;;;;;;5013739;28;20060;-62
2022/11/14 01:38:21;;;;;;;16.77;9.02;;;;;;;;;;5048048;28;20091;-62
2022/11/14 01:41:06;;;;;;;19.92;9.18;;;;;;;;;;4995254;28;20073;-62
2022/11/14 01:43:51;;;;;;;23.63;9.65;;;;;;;;;;4971467;28;20037;-62
2022/11/14 01:46:36;;;;;;;23.95;9.15;;;;;;;;;;4979444;28;20514;-62
2022/11/14 01:49:32;;;;;;;18.67;8.80;;;;;;;;;;4992249;28;20053;-62
2022/11/14 01:52:22;;;;;;;22.67;9.10;;;;;;;;;;4987316;28;20092;-63
2022/11/14 01:55:08;;;;;;;20.05;9.75;;;;;;;;;;4971455;28;20065;-62
2022/11/14 01:57:52;;;;;;;17.70;9.02;;;;;;;;;;4970953;28;20119;-62
2022/11/14 02:00:37;;;;;;;19.85;10.10;;;;;;;;;;4979203;28;20129;-62
2022/11/14 02:03:22;;;;;;;28.25;9.77;;;;;;;;;;4991703;28;20522;-62
2022/11/14 02:06:08;;;;;;;18.42;9.70;;;;;;;;;;4990554;28;20064;-62
2022/11/14 02:08:54;;;;;;;21.88;10.30;;;;;;;;;;4990491;28;20045;-63
2022/11/14 02:11:43;;;;;;;24.88;10.23;;;;;;;;;;4991250;28;20041;-62
2022/11/14 02:14:28;;;;;;;24.85;9.40;;;;;;;;;;4991991;28;20104;-62
2022/11/14 02:17:15;;;;;;;30.13;10.70;;;;;;;;;;4982637;28;20054;-62
2022/11/14 02:20:03;;;;;;;22.10;9.65;;;;;;;;;;4973850;28;20123;-62
2022/11/14 02:22:47;;;;;;;29.08;10.32;;;;;;;;;;4972418;28;20168;-62
2022/11/14 02:25:32;;;;;;;27.40;11.23;;;;;;;;;;4972004;28;20049;-62
2022/11/14 02:28:19;;;;;;;24.08;10.82;;;;;;;;;;4973559;28;20041;-62
2022/11/14 02:31:04;;;;;;;21.25;10.25;;;;;;;;;;4981980;28;20061;-63
2022/11/14 02:33:48;;;;;;;29.25;10.82;;;;;;;;;;4987576;28;20042;-62
2022/11/14 02:36:33;;;;;;;17.35;9.93;;;;;;;;;;4972456;28;20054;-62
2022/11/14 02:39:17;;;;;;;22.15;10.23;;;;;;;;;;4982490;28;20046;-62
2022/11/14 02:42:02;;;;;;;18.20;10.63;;;;;;;;;;4990652;28;20045;-63
2022/11/14 02:44:47;;;;;;;25.38;10.98;;;;;;;;;;4991063;28;20061;-62
2022/11/14 02:47:31;;;;;;;24.85;11.30;;;;;;;;;;4985258;28;20561;-62
2022/11/14 02:50:16;;;;;;;23.50;10.30;;;;;;;;;;4971902;28;20069;-63
2022/11/14 02:53:01;;;;;;;27.85;10.57;;;;;;;;;;4971580;28;20058;-62
2022/11/14 02:55:46;;;;;;;31.95;11.23;;;;;;;;;;4970448;28;20104;-63
2022/11/14 02:58:30;;;;;;;22.35;10.50;;;;;;;;;;4976474;28;20167;-62
2022/11/14 03:01:15;;;;;;;24.10;10.98;;;;;;;;;;4990941;28;20041;-63
2022/11/14 03:03:59;;;;;;;23.92;10.98;;;;;;;;;;4974478;28;20408;-62
2022/11/14 03:06:44;;;;;;;17.08;11.00;;;;;;;;;;4977542;28;20060;-63
2022/11/14 03:09:28;;;;;;;25.98;10.63;;;;;;;;;;4979141;28;20112;-62
2022/11/14 03:12:15;;;;;;;24.88;11.45;;;;;;;;;;4987258;28;20107;-62
2022/11/14 03:15:00;;;;;;;28.23;10.90;;;;;;;;;;4979583;28;20045;-62
2022/11/14 03:17:44;;;;;;;24.40;12.05;;;;;;;;;;4978699;28;20084;-63
2022/11/14 03:20:29;;;;;;;21.63;11.23;;;;;;;;;;4975099;28;20049;-62
2022/11/14 03:23:14;;;;;;;26.95;11.13;;;;;;;;;;4982070;28;20096;-63
2022/11/14 03:26:02;;;;;;;19.98;10.27;;;;;;;;;;4990296;28;20077;-62
2022/11/14 03:28:46;;;;;;;23.77;10.90;;;;;;;;;;4977764;28;20069;-63
2022/11/14 03:31:31;;;;;;;26.23;11.00;;;;;;;;;;4978996;28;20038;-62
2022/11/14 03:34:15;;;;;;;23.08;10.18;;;;;;;;;;4979806;28;20058;-63
2022/11/14 03:37:00;;;;;;;23.38;10.65;;;;;;;;;;4980267;28;20083;-62
2022/11/14 03:39:44;;;;;;;23.17;11.02;;;;;;;;;;4978826;28;20065;-63
2022/11/14 03:42:32;;;;;;;22.02;10.02;;;;;;;;;;4980966;28;20040;-62
2022/11/14 03:45:16;;;;;;;25.40;11.55;;;;;;;;;;4979337;28;20138;-62
2022/11/14 03:48:01;;;;;;;24.83;10.70;;;;;;;;;;4980587;28;20061;-62
2022/11/14 03:50:45;;;;;;;20.35;10.23;;;;;;;;;;4978016;28;20040;-63
2022/11/14 03:53:30;;;;;;;25.83;11.63;;;;;;;;;;4978374;28;20050;-62
2022/11/14 03:56:14;;;;;;;22.75;10.82;;;;;;;;;;4979333;28;20103;-62
2022/11/14 03:58:59;;;;;;;24.63;10.85;;;;;;;;;;4980470;28;20110;-63
2022/11/14 04:01:44;;;;;;;24.83;11.55;;;;;;;;;;4980777;28;20091;-62
2022/11/14 04:04:29;;;;;;;24.45;11.13;;;;;;;;;;4986399;28;20104;-62
2022/11/14 04:07:13;;;;;;;29.65;9.95;;;;;;;;;;4980375;28;20041;-62
2022/11/14 04:09:58;;;;;;;21.48;10.40;;;;;;;;;;4982117;28;20041;-62
2022/11/14 04:12:47;;;;;;;24.17;10.35;;;;;;;;;;4982134;28;20611;-63
2022/11/14 04:15:32;;;;;;;16.50;9.98;;;;;;;;;;4985548;28;20050;-62
2022/11/14 04:18:17;;;;;;;23.52;11.13;;;;;;;;;;4992728;28;20080;-62
2022/11/14 04:21:01;;;;;;;25.20;10.68;;;;;;;;;;4995661;28;20041;-62
2022/11/14 04:23:46;;;;;;;21.35;10.30;;;;;;;;;;4990913;28;20095;-62
2022/11/14 04:26:31;;;;;;;21.45;10.98;;;;;;;;;;4980357;28;20037;-62
2022/11/14 04:29:15;;;;;;;25.45;10.48;;;;;;;;;;4981041;28;20037;-64
2022/11/14 04:32:00;;;;;;;20.77;10.65;;;;;;;;;;4991293;28;20041;-63
2022/11/14 04:34:44;;;;;;;26.50;11.43;;;;;;;;;;4992309;28;20099;-62
2022/11/14 04:37:28;;;;;;;17.30;10.15;;;;;;;;;;4985503;28;20038;-63
2022/11/14 04:40:13;;;;;;;18.77;10.52;;;;;;;;;;4992999;28;20045;-62
2022/11/14 04:42:57;;;;;;;21.27;10.68;;;;;;;;;;4987972;28;20034;-62
2022/11/14 04:45:42;;;;;;;17.08;9.43;;;;;;;;;;4988602;28;20045;-62
2022/11/14 04:48:27;;;;;;;22.27;10.40;;;;;;;;;;4993738;28;20107;-62
2022/11/14 04:51:11;;;;;;;29.10;10.75;;;;;;;;;;4983972;28;20107;-63
2022/11/14 04:53:56;;;;;;;21.27;10.65;;;;;;;;;;4981397;28;20050;-63
2022/11/14 04:56:40;;;;;;;21.23;10.05;;;;;;;;;;4980078;28;20387;-62
2022/11/14 04:59:25;;;;;;;17.40;9.07;;;;;;;;;;4987117;28;20058;-62
2022/11/14 05:02:09;;;;;;;21.20;9.93;;;;;;;;;;4987318;28;20041;-63
2022/11/14 05:04:54;;;;;;;19.10;10.80;;;;;;;;;;4989776;28;20438;-63
2022/11/14 05:07:38;;;;;;;19.27;9.75;;;;;;;;;;4985450;28;20030;-62
2022/11/14 05:10:23;;;;;;;23.65;10.30;;;;;;;;;;4992788;28;20583;-62
2022/11/14 05:13:08;;;;;;;33.10;10.70;;;;;;;;;;4986738;28;20077;-62
2022/11/14 05:15:52;;;;;;;25.60;9.40;;;;;;;;;;4980823;28;20487;-63
2022/11/14 05:18:37;;;;;;;22.42;10.00;;;;;;;;;;4990686;28;20041;-63
2022/11/14 05:21:22;;;;;;;20.30;10.27;;;;;;;;;;4979292;28;20064;-63
2022/11/14 05:24:06;;;;;;;27.38;12.48;;;;;;;;;;4986357;28;20096;-63
2022/11/14 05:26:51;;;;;;;18.08;9.60;;;;;;;;;;4977047;28;20037;-63
2022/11/14 05:29:35;;;;;;;21.25;9.52;;;;;;;;;;4982630;28;20042;-63
2022/11/14 05:32:20;;;;;;;26.85;9.80;;;;;;;;;;4987432;28;20113;-63
2022/11/14 05:35:05;;;;;;;23.85;9.73;;;;;;;;;;4978567;28;20034;-63
2022/11/14 05:37:50;;;;;;;24.00;9.77;;;;;;;;;;4981214;28;20054;-63
2022/11/14 05:40:36;;;;;;;18.70;8.38;;;;;;;;;;4984744;28;20054;-63
2022/11/14 05:43:21;;;;;;;26.73;9.80;;;;;;;;;;4977507;28;20092;-63
2022/11/14 05:46:06;;;;;;;25.15;9.52;;;;;;;;;;4982428;28;20076;-63
2022/11/14 05:48:51;;;;;;;17.52;9.65;;;;;;;;;;4985933;28;20149;-63
2022/11/14 05:51:35;;;;;;;23.75;8.45;;;;;;;;;;4978760;28;20061;-63
2022/11/14 05:54:20;;;;;;;23.95;9.90;;;;;;;;;;4991389;28;20076;-63
2022/11/14 05:57:04;;;;;;;29.38;9.75;;;;;;;;;;4979103;28;20407;-63
2022/11/14 05:59:49;;;;;;;17.63;9.60;;;;;;;;;;4981901;28;20054;-63
2022/11/14 06:02:34;;;;;;;23.83;9.27;;;;;;;;;;4986248;28;20060;-63
2022/11/14 06:05:19;;;;;;;23.52;9.55;;;;;;;;;;4977882;28;20116;-63
2022/11/14 06:08:04;;;;;;;18.98;9.10;;;;;;;;;;4977375;28;20506;-63
2022/11/14 06:10:48;;;;;;;22.02;9.52;;;;;;;;;;4987401;28;20552;-63
2022/11/14 06:13:34;;;;;;;20.48;9.50;;;;;;;;;;4979873;28;20049;-62
2022/11/14 06:16:19;;;;;;;23.10;8.80;;;;;;;;;;4985063;28;20041;-63
2022/11/14 06:19:04;;;;;;;28.52;10.43;;;;;;;;;;4987925;28;20443;-62
2022/11/14 06:21:48;;;;;;;20.20;7.95;;;;;;;;;;4980178;28;20033;-62
2022/11/14 06:24:33;;;;;;;21.23;9.20;;;;;;;;;;4975403;28;20092;-62
2022/11/14 06:27:18;;;;;;;27.33;10.15;;;;;;;;;;4983889;28;20396;-62
2022/11/14 06:30:02;;;;;;;17.00;8.73;;;;;;;;;;4982006;28;20501;-62
2022/11/14 06:32:47;;;;;;;19.25;9.27;;;;;;;;;;4976483;28;20034;-63
2022/11/14 06:35:32;;;;;;;14.45;7.63;;;;;;;;;;4981901;28;20570;-63
2022/11/14 06:38:17;;;;;;;20.67;9.07;;;;;;;;;;4980646;28;20091;-62
2022/11/14 06:41:02;;;;;;;16.33;8.90;;;;;;;;;;4990377;28;20046;-63
2022/11/14 06:43:48;;;;;;;15.05;8.32;;;;;;;;;;4977837;28;20061;-63
2022/11/14 06:46:32;;;;;;;19.30;9.63;;;;;;;;;;4976704;28;20037;-63
2022/11/14 06:49:17;;;;;;;20.73;9.85;;;;;;;;;;4981218;28;20412;-64
2022/11/14 06:52:01;;;;;;;29.13;11.15;;;;;;;;;;4979316;28;20038;-63
2022/11/14 06:54:46;;;;;;;25.20;10.40;;;;;;;;;;4988150;28;20053;-62
2022/11/14 06:57:30;;;;;;;22.73;9.73;;;;;;;;;;4974652;28;20037;-63
2022/11/14 07:00:15;;;;;;;18.20;10.00;;;;;;;;;;4986991;28;20041;-63
2022/11/14 07:02:59;;;;;;;19.63;8.35;;;;;;;;;;4983023;28;20522;-63
2022/11/14 07:05:44;;;;;;;21.45;9.63;;;;;;;;;;4977715;28;20045;-63
2022/11/14 07:08:29;;;;;;;14.60;5.93;;;;;;;;;;4974518;28;20536;-62
2022/11/14 07:11:21;;;;;;;16.30;4.95;;;;;;;;;;4972790;28;20045;-62
2022/11/14 07:14:06;;;;;;;14.63;3.60;;;;;;;;;;4977019;28;20077;-62
2022/11/14 07:16:51;;;;;;;14.65;3.40;;;;;;;;;;4974171;28;20392;-62
2022/11/14 07:19:35;;;;;;;16.63;4.32;;;;;;;;;;4972891;28;20404;-62
2022/11/14 07:22:20;;;;;;;2.13;0.82;;;;;;;;;;4978163;28;20053;-63
2022/11/14 07:25:04;;;;;;;2.45;0.68;;;;;;;;;;4972655;28;20048;-63
2022/11/14 07:27:49;;;;;;;8.65;0.93;;;;;;;;;;4974103;28;20057;-63
2022/11/14 07:30:34;;;;;;;7.20;1.38;;;;;;;;;;4975895;28;20057;-63
2022/11/14 07:33:18;;;;;;;3.90;0.80;;;;;;;;;;4972375;28;20072;-62
2022/11/14 07:36:03;;;;;;;4.05;1.10;;;;;;;;;;4981889;28;20434;-65
2022/11/14 07:38:47;;;;;;;7.97;0.90;;;;;;;;;;4974698;28;20168;-62
2022/11/14 07:41:32;;;;;;;4.63;0.70;;;;;;;;;;4984150;28;20042;-62
2022/11/14 07:44:16;;;;;;;2.78;0.80;;;;;;;;;;4992592;28;20043;-62
2022/11/14 07:47:01;;;;;;;3.60;0.70;;;;;;;;;;4993390;28;20046;-62
2022/11/14 07:49:45;;;;;;;3.08;0.60;;;;;;;;;;5019824;28;20085;-62
2022/11/14 07:52:30;;;;;;;8.02;1.30;;;;;;;;;;5072296;28;20047;-62
2022/11/14 07:55:14;;;;;;;8.65;1.20;;;;;;;;;;4981661;28;20045;-62
2022/11/14 07:57:59;;;;;;;3.95;0.65;;;;;;;;;;4982461;28;20079;-62
2022/11/14 08:00:43;;;;;;;5.03;0.73;;;;;;;;;;4990245;28;20076;-62
2022/11/14 08:03:28;;;;;;;8.80;1.00;;;;;;;;;;4990167;28;20111;-62
2022/11/14 08:06:14;;;;;;;1.35;0.47;;;;;;;;;;4990638;28;20069;-62
2022/11/14 08:08:59;;;;;;;6.40;0.95;;;;;;;;;;4990824;28;20073;-62
2022/11/14 08:11:47;;;;;;;5.82;1.23;;;;;;;;;;4990232;28;20072;-62
2022/11/14 08:14:32;;;;;;;4.93;0.90;;;;;;;;;;4990088;28;20065;-62
2022/11/14 08:17:16;;;;;;;3.17;0.80;;;;;;;;;;4989383;28;20050;-62
2022/11/14 08:20:01;;;;;;;3.33;0.85;;;;;;;;;;4990003;28;20087;-62
2022/11/14 08:22:45;;;;;;;7.07;0.85;;;;;;;;;;4970678;28;20411;-62
2022/11/14 08:25:30;;;;;;;12.18;1.05;;;;;;;;;;4986917;28;20081;-62
2022/11/14 08:28:14;;;;;;;6.57;0.95;;;;;;;;;;4989886;28;20079;-62
2022/11/14 08:31:03;;;;;;;10.80;1.15;;;;;;;;;;4990352;28;20048;-62
2022/11/14 08:33:50;;;;;;;13.90;3.15;;;;;;;;;;4989026;28;20419;-62
2022/11/14 08:36:35;;;;;;;10.30;1.17;;;;;;;;;;4989277;28;20118;-62
2022/11/14 08:39:19;;;;;;;8.88;1.55;;;;;;;;;;4990098;28;20103;-62
2022/11/14 08:42:04;;;;;;;10.00;0.90;;;;;;;;;;4990246;28;20041;-62
2022/11/14 08:44:48;;;;;;;9.32;1.13;;;;;;;;;;4986293;28;20034;-62
2022/11/14 08:47:33;;;;;;;8.05;1.10;;;;;;;;;;4988236;28;20175;-62
2022/11/14 08:50:17;;;;;;;12.30;1.95;;;;;;;;;;4989731;28;20061;-62
2022/11/14 08:53:02;;;;;;;6.18;1.50;;;;;;;;;;4989312;28;20095;-62
2022/11/14 08:55:47;;;;;;;8.25;1.73;;;;;;;;;;4980436;28;20045;-62
2022/11/14 08:58:32;;;;;;;8.48;1.55;;;;;;;;;;4990706;28;20438;-62
2022/11/14 09:01:17;;;;;;;19.50;1.92;;;;;;;;;;4973447;28;20054;-62
2022/11/14 09:04:02;;;;;;;8.10;1.63;;;;;;;;;;4979338;28;20407;-62
2022/11/14 09:06:46;;;;;;;6.05;2.00;;;;;;;;;;4993044;28;20141;-62
2022/11/14 09:09:31;;;;;;;12.10;1.63;;;;;;;;;;4990689;28;20061;-62
2022/11/14 09:12:16;;;;;;;6.50;1.13;;;;;;;;;;4992743;28;20126;-62
2022/11/14 09:15:01;;;;;;;7.45;1.40;;;;;;;;;;4993287;28;20534;-62
2022/11/14 09:17:45;;;;;;;9.90;1.45;;;;;;;;;;4992962;28;20088;-62
2022/11/14 09:20:30;;;;;;;10.70;1.67;;;;;;;;;;4992353;28;20194;-62
2022/11/14 09:23:14;;;;;;;10.52;1.35;;;;;;;;;;4991882;28;20095;-62
2022/11/14 09:26:03;;;;;;;12.05;1.42;;;;;;;;;;4990563;28;20056;-62
2022/11/14 09:28:47;;;;;;;5.00;1.25;;;;;;;;;;4992863;28;20046;-62
2022/11/14 09:31:32;;;;;;;6.07;1.40;;;;;;;;;;4992763;28;20045;-62
2022/11/14 09:34:16;;;;;;;11.50;1.50;;;;;;;;;;4982721;28;20050;-62
2022/11/14 09:37:01;;;;;;;12.00;2.97;;;;;;;;;;4981910;28;20134;-62
2022/11/14 09:39:45;;;;;;;13.32;1.77;;;;;;;;;;4989430;28;20046;-62
2022/11/14 09:42:39;;;;;;;13.82;1.50;;;;;;;;;;4978808;28;20044;-62
2022/11/14 09:45:24;;;;;;;12.10;1.80;;;;;;;;;;4990439;28;20403;-62
2022/11/14 09:48:13;;;;;;;8.95;1.25;;;;;;;;;;4987898;28;20549;-62
2022/11/14 09:51:04;;;;;;;8.10;1.42;;;;;;;;;;4973165;28;20049;-62
2022/11/14 09:53:49;;;;;;;6.80;1.73;;;;;;;;;;4982864;28;20057;-62
2022/11/14 09:56:33;;;;;;;9.07;1.00;;;;;;;;;;4991924;28;20133;-62
2022/11/14 09:59:18;;;;;;;10.20;1.45;;;;;;;;;;4992132;28;20477;-62
2022/11/14 10:02:16;;;;;;;13.52;1.23;;;;;;;;;;4990175;28;20041;-62
2022/11/14 10:05:06;;;;;;;5.88;1.02;;;;;;;;;;4991484;28;20081;-62
2022/11/14 10:07:57;;;;;;;7.47;1.35;;;;;;;;;;4992339;28;20118;-62
2022/11/14 10:10:53;;;;;;;10.23;1.50;;;;;;;;;;4990183;28;20096;-62
2022/11/14 10:13:38;;;;;;;11.43;1.40;;;;;;;;;;4991935;28;20526;-62
2022/11/14 10:16:33;;;;;;;9.90;1.52;;;;;;;;;;4991855;28;20037;-62
2022/11/14 10:19:22;;;;;;;22.98;2.28;;;;;;;;;;4991092;28;20510;-62
2022/11/14 10:22:16;;;;;;;7.13;1.10;;;;;;;;;;4990410;28;20049;-62
2022/11/14 10:25:16;;;;;;;7.60;1.40;;;;;;;;;;4991638;28;20458;-62
2022/11/14 10:28:13;;;;;;;9.10;1.50;;;;;;;;;;4991185;28;20040;-62
2022/11/14 10:31:03;;;;;;;11.48;1.60;;;;;;;;;;4991876;28;20064;-62
2022/11/14 10:33:52;;;;;;;8.40;1.45;;;;;;;;;;4991987;28;20041;-62
2022/11/14 10:36:52;;;;;;;12.50;1.52;;;;;;;;;;4991443;28;20147;-62
2022/11/14 10:39:40;;;;;;;11.35;2.00;;;;;;;;;;4989996;28;20047;-64
2022/11/14 10:42:39;;;;;;;8.68;1.70;;;;;;;;;;4987947;28;20163;-63
2022/11/14 10:45:35;;;;;;;10.43;1.48;;;;;;;;;;4991656;28;20091;-63
2022/11/14 10:48:28;;;;;;;4.10;1.33;;;;;;;;;;4980608;28;20178;-63
2022/11/14 10:51:13;;;;;;;6.97;1.20;;;;;;;;;;4992119;28;20057;-63
2022/11/14 10:54:00;;;;;;;9.35;1.33;;;;;;;;;;4990949;28;20068;-63
2022/11/14 10:56:46;;;;;;;4.53;1.35;;;;;;;;;;4988114;28;20038;-63
2022/11/14 10:59:31;;;;;;;12.02;2.13;;;;;;;;;;4991354;28;20546;-63
2022/11/14 11:02:15;;;;;;;13.20;2.53;;;;;;;;;;4991402;28;20041;-63
2022/11/14 11:05:11;;;;;;;9.45;3.00;;;;;;;;;;4991250;28;20053;-63
2022/11/14 11:14:05;;;;;;;6.00;1.38;;;;;;;;;;4971796;28;20045;-63
2022/11/14 11:17:06;;;;;;;8.45;1.77;;;;;;;;;;4979145;28;20385;-62
2022/11/14 11:19:51;;;;;;;13.73;1.92;;;;;;;;;;4991480;28;20065;-63
2022/11/14 11:22:37;;;;;;;9.07;2.85;;;;;;;;;;4990777;28;20141;-63
2022/11/14 11:25:23;;;;;;;9.35;1.92;;;;;;;;;;4991118;28;20037;-63
2022/11/14 11:28:12;;;;;;;14.75;2.42;;;;;;;;;;4971608;28;20608;-63
2022/11/14 11:31:10;;;;;;;10.32;1.30;;;;;;;;;;4971750;28;20482;-63
2022/11/14 11:33:55;;;;;;;11.43;1.80;;;;;;;;;;4974399;28;20041;-62
2022/11/14 11:36:46;;;;;;;7.53;1.30;;;;;;;;;;4989611;28;20049;-62
2022/11/14 11:39:32;;;;;;;11.50;1.70;;;;;;;;;;4988985;28;20049;-62
2022/11/14 11:42:35;;;;;;;7.60;1.42;;;;;;;;;;4971370;28;20049;-62
2022/11/14 11:45:20;;;;;;;11.68;1.50;;;;;;;;;;4977726;28;20057;-62
2022/11/14 11:48:13;;;;;;;10.88;2.67;;;;;;;;;;4987088;28;20042;-63
2022/11/14 11:50:58;;;;;;;7.35;1.20;;;;;;;;;;4981924;28;20053;-62
2022/11/14 11:53:44;;;;;;;11.32;1.45;;;;;;;;;;4979118;28;20069;-63
2022/11/14 11:56:32;;;;;;;8.63;2.00;;;;;;;;;;4973420;28;20042;-63
2022/11/14 11:59:16;;;;;;;9.63;1.60;;;;;;;;;;4985651;28;20099;-63
2022/11/14 12:02:03;;;;;;;8.60;1.55;;;;;;;;;;4984897;28;20411;-62
2022/11/14 12:04:49;;;;;;;11.57;1.38;;;;;;;;;;4976812;28;20064;-62
2022/11/14 12:07:40;;;;;;;10.55;2.42;;;;;;;;;;4970530;28;20427;-62
2022/11/14 12:10:27;;;;;;;10.93;1.33;;;;;;;;;;4969081;28;20075;-62
2022/11/14 12:13:31;;;;;;;9.27;2.20;;;;;;;;;;4985454;28;20038;-60
2022/11/14 12:16:35;;;;;;;9.77;1.45;;;;;;;;;;4986053;28;20542;-60
2022/11/14 12:19:34;;;;;;;9.30;1.77;;;;;;;;;;4981952;28;20041;-60
2022/11/14 12:22:32;;;;;;;7.97;1.60;;;;;;;;;;4988746;28;20045;-60
2022/11/14 12:25:22;;;;;;;5.78;1.17;;;;;;;;;;4979606;28;20526;-60
2022/11/14 12:28:10;;;;;;;9.40;1.77;;;;;;;;;;4983385;28;20154;-60
2022/11/14 12:30:57;;;;;;;11.20;1.20;;;;;;;;;;4992233;28;20061;-60
2022/11/14 12:34:01;;;;;;;4.35;1.13;;;;;;;;;;4986874;28;20038;-60
2022/11/14 12:36:46;;;;;;;9.90;1.65;;;;;;;;;;4984317;28;20060;-60
2022/11/14 12:39:31;;;;;;;13.63;1.35;;;;;;;;;;4990463;28;20057;-60
2022/11/14 12:42:19;;;;;;;12.52;2.00;;;;;;;;;;4980334;28;20050;-60
2022/11/14 12:45:24;;;;;;;3.75;1.08;;;;;;;;;;4989894;28;20053;-60
2022/11/14 12:48:21;;;;;;;13.93;1.52;;;;;;;;;;4990892;28;20045;-60
2022/11/14 12:51:29;;;;;;;9.52;1.50;;;;;;;;;;4978859;28;20092;-60
2022/11/14 12:54:32;;;;;;;9.90;1.38;;;;;;;;;;4979015;28;20045;-60
2022/11/14 12:57:46;;;;;;;8.38;1.88;;;;;;;;;;4986186;28;20041;-60
2022/11/14 13:00:28;;;;;;;7.72;1.13;;;;;;;;;;4991216;28;20080;-60
2022/11/14 13:03:21;;;;;;;6.88;1.48;;;;;;;;;;4980782;28;20108;-60
2022/11/14 13:06:26;;;;;;;7.38;1.38;;;;;;;;;;4989825;28;20045;-61
2022/11/14 13:09:28;;;;;;;3.22;1.00;;;;;;;;;;4991669;28;20087;-60
2022/11/14 13:22:10;;;;;;;10.55;1.25;;;;;;;;;;4991859;28;20087;-61
2022/11/14 13:24:58;;;;;;;7.45;1.33;;;;;;;;;;4991334;28;20178;-60
2022/11/14 13:27:43;;;;;;;7.88;1.35;;;;;;;;;;4990905;28;20041;-60
2022/11/14 13:30:46;;;;;;;4.45;1.00;;;;;;;;;;4991183;28;20033;-60
2022/11/14 13:33:43;;;;;;;10.52;2.10;;;;;;;;;;4991629;28;20042;-60
2022/11/14 13:36:28;;;;;;;10.63;2.40;;;;;;;;;;4989132;28;20158;-60
2022/11/14 13:39:12;;;;;;;7.18;1.23;;;;;;;;;;4990533;28;20042;-61
2022/11/14 13:41:57;;;;;;;5.50;1.08;;;;;;;;;;4978432;28;20115;-61
2022/11/14 13:45:01;;;;;;;8.32;1.40;;;;;;;;;;4988245;28;20049;-61
2022/11/14 13:47:55;;;;;;;10.65;1.48;;;;;;;;;;5049246;28;20086;-61
2022/11/14 13:50:41;;;;;;;6.18;1.40;;;;;;;;;;5051486;28;20039;-60
2022/11/14 13:53:28;;;;;;;7.35;1.98;;;;;;;;;;5046046;28;20107;-61
2022/11/14 13:56:20;;;;;;;4.93;1.50;;;;;;;;;;5049638;28;20055;-60
2022/11/14 13:59:22;;;;;;;8.57;1.30;;;;;;;;;;5048547;28;20076;-61
2022/11/14 14:02:27;;;;;;;4.85;1.05;;;;;;;;;;5044381;28;20143;-61
2022/11/14 14:05:11;;;;;;;11.07;1.35;;;;;;;;;;5050412;28;20545;-61
2022/11/14 14:08:09;;;;;;;6.60;1.27;;;;;;;;;;5047908;28;20032;-60
2022/11/14 14:10:59;;;;;;;9.48;1.50;;;;;;;;;;5051468;28;20519;-61
2022/11/14 14:14:04;;;;;;;8.55;1.73;;;;;;;;;;5050775;28;20040;-60
2022/11/14 14:16:49;;;;;;;9.98;2.22;;;;;;;;;;5049421;28;20087;-60
2022/11/14 14:19:45;;;;;;;7.35;1.67;;;;;;;;;;5051279;28;20660;-61
2022/11/14 14:22:40;;;;;;;7.47;1.63;;;;;;;;;;5039029;28;20045;-60
2022/11/14 14:25:40;;;;;;;11.75;2.42;;;;;;;;;;4998654;28;20157;-60
2022/11/14 14:28:48;;;;;;;13.43;1.95;;;;;;;;;;4991042;28;20037;-61
2022/11/14 14:31:36;;;;;;;8.32;1.70;;;;;;;;;;4990192;28;20436;-61
2022/11/14 14:34:21;;;;;;;4.82;1.35;;;;;;;;;;4985500;28;20154;-61
2022/11/14 14:37:16;;;;;;;4.10;1.85;;;;;;;;;;4989322;28;20038;-60
2022/11/14 14:40:05;;;;;;;5.55;1.13;;;;;;;;;;4990570;28;20454;-61
2022/11/14 14:42:50;;;;;;;11.10;1.80;;;;;;;;;;4988518;28;20139;-61
2022/11/14 14:45:44;;;;;;;5.97;0.98;;;;;;;;;;4988862;28;20155;-61
2022/11/14 14:48:30;;;;;;;4.38;0.93;;;;;;;;;;4984707;28;20036;-60
2022/11/14 14:51:28;;;;;;;3.92;1.67;;;;;;;;;;4986814;28;20561;-60
2022/11/14 14:54:20;;;;;;;6.43;1.30;;;;;;;;;;4987517;28;20223;-60
2022/11/14 14:57:04;;;;;;;7.43;1.30;;;;;;;;;;4982643;28;20587;-60
2022/11/14 15:00:03;;;;;;;8.75;1.10;;;;;;;;;;4977900;28;20037;-60
2022/11/14 15:02:49;;;;;;;6.28;0.93;;;;;;;;;;4990040;28;20041;-60
2022/11/14 15:05:33;;;;;;;7.97;1.17;;;;;;;;;;4988765;28;20095;-60
2022/11/14 15:08:18;;;;;;;6.60;1.73;;;;;;;;;;4990416;28;20037;-61
2022/11/14 15:11:03;;;;;;;9.35;1.52;;;;;;;;;;4989902;28;20034;-61
2022/11/14 15:13:49;;;;;;;8.10;1.58;;;;;;;;;;4989847;28;20487;-60
2022/11/14 15:16:34;;;;;;;6.18;1.50;;;;;;;;;;4982560;28;20038;-60
2022/11/14 15:19:27;;;;;;;7.18;1.67;;;;;;;;;;4979035;28;20033;-60
2022/11/14 15:22:14;;;;;;;6.82;1.50;;;;;;;;;;4990078;28;20044;-60
2022/11/14 15:25:11;;;;;;;5.03;1.55;;;;;;;;;;4987599;28;20040;-61
2022/11/14 15:27:59;;;;;;;8.43;1.65;;;;;;;;;;4989658;28;20475;-61
2022/11/14 15:30:55;;;;;;;8.93;1.50;;;;;;;;;;4979696;28;20122;-60
2022/11/14 15:33:40;;;;;;;8.75;1.80;;;;;;;;;;4987739;28;20434;-60
2022/11/14 15:36:25;;;;;;;6.32;1.33;;;;;;;;;;4989021;28;20045;-60
2022/11/14 15:39:28;;;;;;;8.68;1.33;;;;;;;;;;4989946;28;20037;-60
2022/11/14 15:42:20;;;;;;;7.03;2.70;;;;;;;;;;4980587;28;20041;-60
2022/11/14 15:45:28;;;;;;;8.82;1.60;;;;;;;;;;4988824;28;20114;-60
2022/11/14 15:48:14;;;;;;;7.82;0.90;;;;;;;;;;4988312;28;20084;-60
2022/11/14 15:50:59;;;;;;;5.55;1.35;;;;;;;;;;4988250;28;20049;-60
2022/11/14 15:53:45;;;;;;;5.75;1.77;;;;;;;;;;4984983;28;20045;-60
2022/11/14 15:56:30;;;;;;;12.52;2.08;;;;;;;;;;4976872;28;20052;-60
2022/11/14 15:59:15;;;;;;;6.93;2.30;;;;;;;;;;4986903;28;20042;-60
2022/11/14 16:02:03;;;;;;;15.93;4.63;;;;;;;;;;4980156;28;20033;-60
2022/11/14 16:04:50;;;;;;;12.45;6.00;;;;;;;;;;4974828;28;20589;-60
2022/11/14 16:07:35;;;;;;;21.88;8.15;;;;;;;;;;4981710;28;20415;-60
2022/11/14 16:10:24;;;;;;;23.83;10.20;;;;;;;;;;4972654;28;20038;-60
2022/11/14 16:13:09;;;;;;;24.92;9.10;;;;;;;;;;4980053;28;20046;-60
2022/11/14 16:15:54;;;;;;;22.92;10.43;;;;;;;;;;4982936;28;20091;-60
2022/11/14 16:18:39;;;;;;;23.17;9.88;;;;;;;;;;4978921;28;20050;-60
2022/11/14 16:21:24;;;;;;;27.05;11.65;;;;;;;;;;4977428;28;20053;-60
2022/11/14 16:24:14;;;;;;;27.17;12.65;;;;;;;;;;4974422;28;20400;-61
2022/11/14 16:26:58;;;;;;;26.15;10.13;;;;;;;;;;4982925;28;20088;-61
2022/11/14 16:29:43;;;;;;;22.35;9.60;;;;;;;;;;4986628;28;20037;-60
2022/11/14 16:32:27;;;;;;;15.68;6.82;;;;;;;;;;4981269;28;20038;-61
2022/11/14 16:35:19;;;;;;;16.40;6.97;;;;;;;;;;4980496;28;20049;-61
2022/11/14 16:38:04;;;;;;;15.45;7.05;;;;;;;;;;4990988;28;20045;-61
2022/11/14 16:40:48;;;;;;;23.05;8.95;;;;;;;;;;4979143;28;20057;-61
2022/11/14 16:43:33;;;;;;;18.33;8.57;;;;;;;;;;4980063;28;20084;-61
2022/11/14 16:46:17;;;;;;;27.25;11.88;;;;;;;;;;4978902;28;20061;-61